Terminal Aerodrome Forecast
Issued by NWS

Home | Current Version | Previous Version | Text Only | Print | Product List | Glossary On
Versions: 1 2 3 4 5 6 7 8 9 10 11 12 13 14 15 16 17 18 19 20 21
264
FTUS43 KJKL 121739
TAFSME
TAF
KSME 121739Z 1218/1318 29007KT P6SM VCSH SCT010 OVC020
     FM130300 32007KT P6SM BKN030
     FM131200 VRB05KT P6SM SCT030=

USA.gov is the U.S. government's official web portal to all federal, state and local government web resources and services.